Time;durP1;ratioP1;P1;durP2;ratioP2;P2;SDS_P1;SDS_P2;PMS_P1;PMS_P2;Temp;Humidity;BMP_temperature;BMP_pressure;BME280_temperature;BME280_humidity;BME280_pressure;Samples;Min_cycle;Max_cycle;Signal;HPM_P1;HPM_P2
2021/09/29 00:00:32;;;;;;;2.33;1.80;;;;;;;;;;5051449;28;20295;-58
2021/09/29 00:02:58;;;;;;;2.30;1.83;;;;;;;;;;5069424;28;20244;-58
2021/09/29 00:05:24;;;;;;;3.30;1.90;;;;;;;;;;5067271;28;20623;-58
2021/09/29 00:07:51;;;;;;;3.17;1.40;;;;;;;;;;5064864;28;20184;-58
2021/09/29 00:10:17;;;;;;;2.10;1.83;;;;;;;;;;5069959;28;20177;-58
2021/09/29 00:12:44;;;;;;;2.73;1.93;;;;;;;;;;5055609;28;20223;-58
2021/09/29 00:15:14;;;;;;;2.93;1.90;;;;;;;;;;5065226;28;20491;-57
2021/09/29 00:17:49;;;;;;;2.70;2.10;;;;;;;;;;5088708;28;20348;-57
2021/09/29 00:20:16;;;;;;;2.37;1.80;;;;;;;;;;5066826;28;20742;-58
2021/09/29 00:22:43;;;;;;;3.20;2.17;;;;;;;;;;5082766;28;20208;-58
2021/09/29 00:25:10;;;;;;;3.17;2.00;;;;;;;;;;5073577;28;20187;-58
2021/09/29 00:27:36;;;;;;;2.13;1.70;;;;;;;;;;5080977;28;20215;-58
2021/09/29 00:30:05;;;;;;;2.40;1.70;;;;;;;;;;5064471;28;20224;-58
2021/09/29 00:32:33;;;;;;;3.10;1.80;;;;;;;;;;5082734;28;20290;-58
2021/09/29 00:35:00;;;;;;;2.27;1.60;;;;;;;;;;5065180;28;20219;-58
2021/09/29 00:37:26;;;;;;;4.00;2.40;;;;;;;;;;5081597;28;20189;-58
2021/09/29 00:39:53;;;;;;;2.67;1.80;;;;;;;;;;5067220;28;20283;-58
2021/09/29 00:42:19;;;;;;;2.63;2.00;;;;;;;;;;5069598;28;20236;-57
2021/09/29 00:44:45;;;;;;;4.30;1.93;;;;;;;;;;5068903;28;20184;-58
2021/09/29 00:47:12;;;;;;;2.10;1.90;;;;;;;;;;5069185;28;20203;-58
2021/09/29 00:49:38;;;;;;;3.47;1.93;;;;;;;;;;5069122;28;20192;-58
2021/09/29 00:52:04;;;;;;;2.60;1.93;;;;;;;;;;5070134;28;20188;-58
2021/09/29 00:54:31;;;;;;;2.13;1.77;;;;;;;;;;5089529;28;20211;-58
2021/09/29 00:56:58;;;;;;;2.53;2.10;;;;;;;;;;5068262;28;20817;-57
2021/09/29 00:59:24;;;;;;;2.20;2.00;;;;;;;;;;5071345;28;20229;-57
2021/09/29 01:01:51;;;;;;;3.43;2.00;;;;;;;;;;5062338;28;20259;-57
2021/09/29 01:04:18;;;;;;;3.57;2.40;;;;;;;;;;5087261;28;20175;-57
2021/09/29 01:06:53;;;;;;;2.83;2.07;;;;;;;;;;5083995;28;20176;-57
2021/09/29 01:09:43;;;;;;;3.73;2.13;;;;;;;;;;5088214;28;20203;-58
2021/09/29 01:12:16;;;;;;;4.87;2.17;;;;;;;;;;5038801;28;20221;-58
2021/09/29 01:14:48;;;;;;;2.77;1.97;;;;;;;;;;5066094;28;20566;-58
2021/09/29 01:17:16;;;;;;;4.47;2.20;;;;;;;;;;5067357;28;20205;-58
2021/09/29 01:20:01;;;;;;;2.83;1.93;;;;;;;;;;5066811;28;20200;-58
2021/09/29 01:22:51;;;;;;;2.53;1.90;;;;;;;;;;5067127;28;20180;-58
2021/09/29 01:25:22;;;;;;;3.73;2.13;;;;;;;;;;5081829;28;20230;-58
2021/09/29 01:27:48;;;;;;;7.77;3.00;;;;;;;;;;5067215;28;20184;-57
2021/09/29 01:30:15;;;;;;;6.73;6.30;;;;;;;;;;5066934;28;20172;-57
2021/09/29 01:32:41;;;;;;;3.67;2.10;;;;;;;;;;5065985;28;20211;-57
2021/09/29 01:35:08;;;;;;;2.00;1.90;;;;;;;;;;5066371;28;20189;-57
2021/09/29 01:37:34;;;;;;;2.72;2.08;;;;;;;;;;5066199;28;20434;-57
2021/09/29 01:40:01;;;;;;;2.60;1.80;;;;;;;;;;5080976;28;20616;-57
2021/09/29 01:42:27;;;;;;;3.80;2.30;;;;;;;;;;5065277;28;20554;-57
2021/09/29 01:44:53;;;;;;;3.83;1.57;;;;;;;;;;5066192;28;20176;-57
2021/09/29 01:47:20;;;;;;;3.80;2.07;;;;;;;;;;5064248;28;20173;-57
2021/09/29 01:49:47;;;;;;;3.73;2.23;;;;;;;;;;5082373;28;20567;-57
2021/09/29 01:52:17;;;;;;;2.67;2.00;;;;;;;;;;5064763;28;20210;-57
2021/09/29 01:54:46;;;;;;;3.17;1.80;;;;;;;;;;5067120;28;20197;-57
2021/09/29 01:57:12;;;;;;;2.37;2.17;;;;;;;;;;5063253;28;20262;-57
2021/09/29 01:59:39;;;;;;;4.17;2.10;;;;;;;;;;5070576;28;20213;-57
2021/09/29 02:02:06;;;;;;;2.77;2.10;;;;;;;;;;5075960;28;20483;-57
2021/09/29 02:04:32;;;;;;;2.17;1.80;;;;;;;;;;5070904;28;20184;-57
2021/09/29 02:06:58;;;;;;;4.87;2.40;;;;;;;;;;5067217;28;20181;-57
2021/09/29 02:09:27;;;;;;;2.00;1.83;;;;;;;;;;5065770;28;20177;-57
2021/09/29 02:11:54;;;;;;;3.10;2.10;;;;;;;;;;5068693;28;21874;-58
2021/09/29 02:14:21;;;;;;;4.37;2.10;;;;;;;;;;5078218;28;20181;-58
2021/09/29 02:16:48;;;;;;;3.47;2.07;;;;;;;;;;5068812;28;20635;-58
2021/09/29 02:19:14;;;;;;;2.93;2.00;;;;;;;;;;5061458;28;20187;-58
2021/09/29 02:21:41;;;;;;;5.43;2.30;;;;;;;;;;5051940;28;20678;-58
2021/09/29 02:24:08;;;;;;;3.20;1.90;;;;;;;;;;5064982;28;20177;-58
2021/09/29 02:26:35;;;;;;;4.27;2.30;;;;;;;;;;5069314;28;20177;-62
2021/09/29 02:29:01;;;;;;;5.60;2.00;;;;;;;;;;5054103;28;20180;-58
2021/09/29 02:31:28;;;;;;;3.53;2.13;;;;;;;;;;5052154;28;20176;-58
2021/09/29 02:33:54;;;;;;;5.70;2.10;;;;;;;;;;5069949;28;20191;-58
2021/09/29 02:36:21;;;;;;;4.10;1.90;;;;;;;;;;5052682;28;20220;-58
2021/09/29 02:38:49;;;;;;;2.50;1.93;;;;;;;;;;5052857;28;20349;-57
2021/09/29 02:41:15;;;;;;;3.53;2.20;;;;;;;;;;5054678;28;20674;-58
2021/09/29 02:43:41;;;;;;;2.03;1.70;;;;;;;;;;5052686;28;20212;-58
2021/09/29 02:46:07;;;;;;;3.13;1.87;;;;;;;;;;5069740;28;20183;-58
2021/09/29 02:48:33;;;;;;;2.00;1.80;;;;;;;;;;5051892;28;20184;-58
2021/09/29 02:51:00;;;;;;;3.23;1.67;;;;;;;;;;5070049;28;20207;-58
2021/09/29 02:53:28;;;;;;;3.20;2.10;;;;;;;;;;5052534;28;20631;-58
2021/09/29 02:56:04;;;;;;;5.23;3.20;;;;;;;;;;5061620;28;20187;-58
2021/09/29 02:58:31;;;;;;;2.43;2.23;;;;;;;;;;5051177;28;20199;-58
2021/09/29 03:00:59;;;;;;;3.23;1.93;;;;;;;;;;5044634;28;20704;-58
2021/09/29 03:03:25;;;;;;;3.03;1.77;;;;;;;;;;5049592;28;20180;-57
2021/09/29 03:05:51;;;;;;;4.23;2.30;;;;;;;;;;5074313;28;20176;-58
2021/09/29 03:08:18;;;;;;;3.70;1.83;;;;;;;;;;5062411;28;20183;-58
2021/09/29 03:10:44;;;;;;;3.57;3.00;;;;;;;;;;5064948;28;20266;-57
2021/09/29 03:13:11;;;;;;;7.70;2.40;;;;;;;;;;5078811;28;20232;-57
2021/09/29 03:15:38;;;;;;;5.80;2.30;;;;;;;;;;5085536;28;20187;-58
2021/09/29 03:18:04;;;;;;;2.67;2.47;;;;;;;;;;5070256;28;20179;-58
2021/09/29 03:20:31;;;;;;;3.20;2.13;;;;;;;;;;5091323;28;20585;-57
2021/09/29 03:22:58;;;;;;;4.07;2.43;;;;;;;;;;5089764;28;20176;-58
2021/09/29 03:25:24;;;;;;;5.13;2.57;;;;;;;;;;5071327;28;20233;-57
2021/09/29 03:27:51;;;;;;;3.77;2.07;;;;;;;;;;5068209;28;20188;-58
2021/09/29 03:30:17;;;;;;;4.17;2.10;;;;;;;;;;5088629;28;20236;-57
2021/09/29 03:32:44;;;;;;;3.77;2.43;;;;;;;;;;5070060;28;20238;-57
2021/09/29 03:35:10;;;;;;;4.20;2.43;;;;;;;;;;5089201;28;20184;-57
2021/09/29 03:37:37;;;;;;;3.13;2.20;;;;;;;;;;5089921;28;20207;-57
2021/09/29 03:40:06;;;;;;;4.53;2.17;;;;;;;;;;5071201;28;20294;-58
2021/09/29 03:42:32;;;;;;;4.43;1.90;;;;;;;;;;5084785;28;20204;-57
2021/09/29 03:44:58;;;;;;;2.87;2.07;;;;;;;;;;5074280;28;20804;-57
2021/09/29 03:47:25;;;;;;;3.90;2.20;;;;;;;;;;5089728;28;20706;-58
2021/09/29 03:49:51;;;;;;;4.10;2.53;;;;;;;;;;5070611;28;20674;-57
2021/09/29 03:52:17;;;;;;;4.53;2.40;;;;;;;;;;5064621;28;20184;-57
2021/09/29 03:54:44;;;;;;;4.20;2.43;;;;;;;;;;5063127;28;20176;-57
2021/09/29 03:57:10;;;;;;;5.37;2.40;;;;;;;;;;5080339;28;20728;-58
2021/09/29 03:59:36;;;;;;;4.23;2.07;;;;;;;;;;5078537;28;20710;-58
2021/09/29 04:02:03;;;;;;;5.40;2.73;;;;;;;;;;5062904;28;20218;-58
2021/09/29 04:04:29;;;;;;;2.73;2.00;;;;;;;;;;5081471;28;20830;-57
2021/09/29 04:06:55;;;;;;;3.37;2.17;;;;;;;;;;5082545;28;20186;-58
2021/09/29 04:09:22;;;;;;;5.67;4.30;;;;;;;;;;5067329;28;20183;-58
2021/09/29 04:11:48;;;;;;;2.50;1.73;;;;;;;;;;5064104;28;20183;-58
2021/09/29 04:14:16;;;;;;;5.33;3.03;;;;;;;;;;5083061;28;20208;-57
2021/09/29 04:16:42;;;;;;;4.40;2.77;;;;;;;;;;5082562;28;20541;-57
2021/09/29 04:19:09;;;;;;;5.13;2.27;;;;;;;;;;5083299;28;20184;-57
2021/09/29 04:21:37;;;;;;;2.87;2.27;;;;;;;;;;5064877;28;20557;-57
2021/09/29 04:24:03;;;;;;;3.60;2.20;;;;;;;;;;5082947;28;20253;-57
2021/09/29 04:26:30;;;;;;;5.03;2.33;;;;;;;;;;5062782;28;20180;-57
2021/09/29 04:28:56;;;;;;;3.93;1.80;;;;;;;;;;5066350;28;20191;-57
2021/09/29 04:31:23;;;;;;;3.20;1.97;;;;;;;;;;5082673;28;20678;-57
2021/09/29 04:33:49;;;;;;;2.40;1.87;;;;;;;;;;5063287;28;20207;-57
2021/09/29 04:36:15;;;;;;;2.90;2.27;;;;;;;;;;5083072;28;20179;-57
2021/09/29 04:38:42;;;;;;;2.87;1.97;;;;;;;;;;5062306;28;20191;-57
2021/09/29 04:41:08;;;;;;;3.90;2.20;;;;;;;;;;5078346;28;20226;-58
2021/09/29 04:43:35;;;;;;;2.33;2.00;;;;;;;;;;5078986;28;21000;-57
2021/09/29 04:46:02;;;;;;;4.27;2.33;;;;;;;;;;5061528;28;20274;-57
2021/09/29 04:48:29;;;;;;;2.77;1.97;;;;;;;;;;5080224;28;20187;-58
2021/09/29 04:50:55;;;;;;;4.80;2.20;;;;;;;;;;5062767;28;20729;-58
2021/09/29 04:53:21;;;;;;;3.63;2.40;;;;;;;;;;5082613;28;20233;-58
2021/09/29 04:55:47;;;;;;;3.67;2.27;;;;;;;;;;5059938;28;20243;-58
2021/09/29 04:58:14;;;;;;;4.90;2.30;;;;;;;;;;5084074;28;20260;-58
2021/09/29 05:00:40;;;;;;;3.73;3.10;;;;;;;;;;5082018;28;20575;-58
2021/09/29 05:03:08;;;;;;;3.37;2.43;;;;;;;;;;5070031;28;20536;-58
2021/09/29 05:05:35;;;;;;;3.23;2.33;;;;;;;;;;5079292;28;20179;-58
2021/09/29 05:08:03;;;;;;;4.93;2.30;;;;;;;;;;5085002;28;20517;-58
2021/09/29 05:10:41;;;;;;;3.23;2.20;;;;;;;;;;5077037;28;20187;-58
2021/09/29 05:13:08;;;;;;;5.43;2.63;;;;;;;;;;5082356;28;20234;-58
2021/09/29 05:15:35;;;;;;;5.03;2.23;;;;;;;;;;5077590;28;20192;-58
2021/09/29 05:18:01;;;;;;;3.70;2.40;;;;;;;;;;5087661;28;20182;-57
2021/09/29 05:20:27;;;;;;;3.93;2.13;;;;;;;;;;5070850;28;20196;-57
2021/09/29 05:22:54;;;;;;;2.10;1.90;;;;;;;;;;5086707;28;20180;-57
2021/09/29 05:25:20;;;;;;;7.40;2.43;;;;;;;;;;5062290;28;20808;-57
2021/09/29 05:27:47;;;;;;;3.27;1.93;;;;;;;;;;5086340;28;20641;-57
2021/09/29 05:30:14;;;;;;;3.20;2.13;;;;;;;;;;5078515;28;20652;-57
2021/09/29 05:32:40;;;;;;;4.57;2.40;;;;;;;;;;5052178;28;20204;-57
2021/09/29 05:35:06;;;;;;;5.43;2.37;;;;;;;;;;5060374;28;20203;-58
2021/09/29 05:37:33;;;;;;;2.53;2.20;;;;;;;;;;5056534;28;20219;-57
2021/09/29 05:39:59;;;;;;;7.37;3.03;;;;;;;;;;5081827;28;20597;-56
2021/09/29 05:42:25;;;;;;;6.00;2.80;;;;;;;;;;5085781;28;20175;-56
2021/09/29 05:44:52;;;;;;;5.53;2.70;;;;;;;;;;5074331;28;20175;-56
2021/09/29 05:47:18;;;;;;;4.43;2.50;;;;;;;;;;5095662;28;20171;-56
2021/09/29 05:49:44;;;;;;;3.50;2.80;;;;;;;;;;5084134;28;20512;-56
2021/09/29 05:52:11;;;;;;;4.50;3.00;;;;;;;;;;5079062;28;20191;-56
2021/09/29 05:54:37;;;;;;;4.83;2.37;;;;;;;;;;5095832;28;20713;-56
2021/09/29 05:57:04;;;;;;;7.13;3.10;;;;;;;;;;5085896;28;20188;-56
2021/09/29 05:59:30;;;;;;;4.47;2.87;;;;;;;;;;5074029;28;20187;-56
2021/09/29 06:01:56;;;;;;;6.00;3.10;;;;;;;;;;5086428;28;20180;-56
2021/09/29 06:04:22;;;;;;;5.00;2.90;;;;;;;;;;5067585;28;20179;-56
2021/09/29 06:06:49;;;;;;;6.97;3.37;;;;;;;;;;5076637;28;20264;-56
2021/09/29 06:09:15;;;;;;;6.13;3.20;;;;;;;;;;5072696;28;20606;-56
2021/09/29 06:11:41;;;;;;;5.00;2.73;;;;;;;;;;5070699;28;20242;-55
2021/09/29 06:14:09;;;;;;;10.43;3.30;;;;;;;;;;5066163;28;20180;-56
2021/09/29 06:16:41;;;;;;;4.70;2.97;;;;;;;;;;5079264;28;20191;-56
2021/09/29 06:19:08;;;;;;;13.20;4.03;;;;;;;;;;5086455;28;20187;-57
2021/09/29 06:21:34;;;;;;;11.03;3.60;;;;;;;;;;5090096;28;20204;-57
2021/09/29 06:24:00;;;;;;;8.57;3.07;;;;;;;;;;5074710;28;20255;-58
2021/09/29 06:26:28;;;;;;;5.40;3.13;;;;;;;;;;5071089;28;20208;-58
2021/09/29 06:28:55;;;;;;;12.43;3.27;;;;;;;;;;5074320;28;20180;-58
2021/09/29 06:31:21;;;;;;;7.23;3.40;;;;;;;;;;5078371;28;20222;-58
2021/09/29 06:33:49;;;;;;;6.53;3.50;;;;;;;;;;5088000;28;20196;-59
2021/09/29 06:36:15;;;;;;;7.20;2.80;;;;;;;;;;5091190;28;20208;-58
2021/09/29 06:38:42;;;;;;;9.40;3.43;;;;;;;;;;5074377;28;20669;-58
2021/09/29 06:41:08;;;;;;;8.40;2.73;;;;;;;;;;5068867;28;20687;-58
2021/09/29 06:43:34;;;;;;;6.87;2.60;;;;;;;;;;5074843;28;20184;-58
2021/09/29 06:46:00;;;;;;;4.37;2.40;;;;;;;;;;5083109;28;20689;-58
2021/09/29 06:48:26;;;;;;;6.13;3.20;;;;;;;;;;5048507;28;20184;-58
2021/09/29 06:50:53;;;;;;;8.67;3.17;;;;;;;;;;5079199;28;20635;-58
2021/09/29 06:53:20;;;;;;;4.87;2.80;;;;;;;;;;5067627;28;20611;-57
2021/09/29 06:55:47;;;;;;;3.90;2.50;;;;;;;;;;5088148;28;20184;-57
2021/09/29 06:58:13;;;;;;;4.13;2.73;;;;;;;;;;5077303;28;20195;-57
2021/09/29 07:00:40;;;;;;;5.00;2.73;;;;;;;;;;5081913;28;20218;-58
2021/09/29 07:03:07;;;;;;;6.17;2.57;;;;;;;;;;5068559;28;20200;-58
2021/09/29 07:05:33;;;;;;;6.13;2.63;;;;;;;;;;5090921;28;20245;-58
2021/09/29 07:08:00;;;;;;;3.10;2.50;;;;;;;;;;5078097;28;20188;-58
2021/09/29 07:10:27;;;;;;;3.17;2.70;;;;;;;;;;5043810;28;20234;-58
2021/09/29 07:12:55;;;;;;;5.93;4.17;;;;;;;;;;5101797;28;20655;-57
2021/09/29 07:15:22;;;;;;;4.87;2.97;;;;;;;;;;5051015;28;20180;-58
2021/09/29 07:17:51;;;;;;;2.83;2.60;;;;;;;;;;5073244;28;20180;-58
2021/09/29 07:20:17;;;;;;;3.27;2.70;;;;;;;;;;5049030;28;20208;-58
2021/09/29 07:22:44;;;;;;;4.80;2.77;;;;;;;;;;5064422;28;20239;-57
2021/09/29 07:25:10;;;;;;;4.93;2.70;;;;;;;;;;5055606;28;20180;-58
2021/09/29 07:27:36;;;;;;;4.07;2.60;;;;;;;;;;5067458;28;20264;-58
2021/09/29 07:30:03;;;;;;;4.20;2.70;;;;;;;;;;5078107;28;20188;-57
2021/09/29 07:32:29;;;;;;;8.57;3.77;;;;;;;;;;5082318;28;20591;-58
2021/09/29 07:34:55;;;;;;;3.43;3.13;;;;;;;;;;5076573;28;20191;-58
2021/09/29 07:37:22;;;;;;;2.93;2.70;;;;;;;;;;5087858;28;20258;-58
2021/09/29 07:39:48;;;;;;;3.20;2.80;;;;;;;;;;5093439;28;20279;-58
2021/09/29 07:42:14;;;;;;;5.13;3.40;;;;;;;;;;5068346;28;20184;-58
2021/09/29 07:44:41;;;;;;;3.10;2.77;;;;;;;;;;5089415;28;20919;-58
2021/09/29 07:47:08;;;;;;;4.47;2.47;;;;;;;;;;5080966;28;20266;-58
2021/09/29 07:49:34;;;;;;;3.97;3.13;;;;;;;;;;5067430;28;20189;-58
2021/09/29 07:52:00;;;;;;;3.83;2.93;;;;;;;;;;5047920;28;20545;-59
2021/09/29 07:54:27;;;;;;;6.20;3.00;;;;;;;;;;5070978;28;20623;-59
2021/09/29 07:56:54;;;;;;;5.20;2.70;;;;;;;;;;5068188;28;20322;-58
2021/09/29 07:59:20;;;;;;;3.67;2.63;;;;;;;;;;5093835;28;20318;-58
2021/09/29 08:01:46;;;;;;;5.13;2.60;;;;;;;;;;5087402;28;20632;-58
2021/09/29 08:04:16;;;;;;;3.17;2.87;;;;;;;;;;5060920;28;20194;-59
2021/09/29 08:06:42;;;;;;;4.37;2.50;;;;;;;;;;5067891;28;20727;-58
2021/09/29 08:09:08;;;;;;;7.50;3.17;;;;;;;;;;5073756;28;20180;-58
2021/09/29 08:11:34;;;;;;;5.13;3.23;;;;;;;;;;5080189;28;20188;-59
2021/09/29 08:14:00;;;;;;;4.63;2.80;;;;;;;;;;5084202;28;20203;-59
2021/09/29 08:16:26;;;;;;;3.23;2.90;;;;;;;;;;5061643;28;20177;-59
2021/09/29 08:18:53;;;;;;;3.37;2.73;;;;;;;;;;5068456;28;20254;-59
2021/09/29 08:21:24;;;;;;;5.07;3.13;;;;;;;;;;5072016;28;20210;-60
2021/09/29 08:23:53;;;;;;;3.73;2.60;;;;;;;;;;5056534;28;20231;-60
2021/09/29 08:26:34;;;;;;;3.13;2.83;;;;;;;;;;5056792;28;20178;-59
2021/09/29 08:31:52;;;;;;;3.87;2.87;;;;;;;;;;5067420;28;20188;-60
2021/09/29 08:35:07;;;;;;;2.80;2.43;;;;;;;;;;5059755;28;20192;-60
2021/09/29 08:39:51;;;;;;;5.67;3.57;;;;;;;;;;5067407;28;20727;-59
2021/09/29 08:42:31;;;;;;;3.00;2.27;;;;;;;;;;5057419;28;20573;-59
2021/09/29 08:45:04;;;;;;;3.70;2.97;;;;;;;;;;5059797;28;20186;-59
2021/09/29 08:47:36;;;;;;;4.97;3.13;;;;;;;;;;5072871;28;20647;-59
2021/09/29 08:50:10;;;;;;;3.53;2.83;;;;;;;;;;5066959;28;20203;-59
2021/09/29 08:55:15;;;;;;;4.70;2.50;;;;;;;;;;5080244;28;20188;-59
2021/09/29 08:58:10;;;;;;;3.13;2.70;;;;;;;;;;5046801;28;20203;-59
2021/09/29 09:17:31;;;;;;;3.03;2.70;;;;;;;;;;5050656;28;20207;-59
2021/09/29 09:20:10;;;;;;;5.17;2.80;;;;;;;;;;5048428;28;20212;-59
2021/09/29 09:22:36;;;;;;;5.17;2.87;;;;;;;;;;5062190;28;20180;-59
2021/09/29 09:25:03;;;;;;;7.27;2.93;;;;;;;;;;5071585;28;20181;-59
2021/09/29 09:27:46;;;;;;;5.07;2.97;;;;;;;;;;5070803;28;20187;-59
2021/09/29 09:30:25;;;;;;;2.87;2.50;;;;;;;;;;5049766;28;20188;-59
2021/09/29 09:32:55;;;;;;;4.03;3.07;;;;;;;;;;5053744;28;20227;-59
2021/09/29 09:35:22;;;;;;;6.20;3.07;;;;;;;;;;5068029;28;20287;-59
2021/09/29 09:37:57;;;;;;;4.50;3.00;;;;;;;;;;5066039;28;20177;-59
2021/09/29 09:40:26;;;;;;;4.13;3.00;;;;;;;;;;5048380;28;20746;-58
2021/09/29 09:42:56;;;;;;;3.27;2.50;;;;;;;;;;5033063;28;20223;-58
2021/09/29 09:45:40;;;;;;;3.03;2.40;;;;;;;;;;5077945;28;20627;-58
2021/09/29 09:48:17;;;;;;;3.47;2.47;;;;;;;;;;5046186;28;20186;-59
2021/09/29 09:50:43;;;;;;;5.73;2.53;;;;;;;;;;5069958;28;20295;-58
2021/09/29 09:53:13;;;;;;;2.50;2.30;;;;;;;;;;5068434;28;20590;-58
2021/09/29 09:55:39;;;;;;;2.83;2.27;;;;;;;;;;5079347;28;20674;-59
2021/09/29 09:58:06;;;;;;;2.37;2.17;;;;;;;;;;5046691;28;20241;-60
2021/09/29 10:00:34;;;;;;;2.93;2.20;;;;;;;;;;5048113;28;20778;-58
2021/09/29 10:03:01;;;;;;;3.90;2.23;;;;;;;;;;5063807;28;20616;-59
2021/09/29 10:05:30;;;;;;;2.03;1.90;;;;;;;;;;5055537;28;20728;-59
2021/09/29 10:07:57;;;;;;;3.93;1.97;;;;;;;;;;5071413;28;20180;-59
2021/09/29 10:27:16;;;;;;;1.77;1.40;;;;;;;;;;5077371;28;20551;-60
2021/09/29 10:30:13;;;;;;;4.17;1.70;;;;;;;;;;5059718;28;20187;-59
2021/09/29 10:32:51;;;;;;;2.40;1.53;;;;;;;;;;5050711;28;20207;-59
2021/09/29 10:40:15;;;;;;;2.67;1.63;;;;;;;;;;5071316;28;20188;-59
2021/09/29 10:43:20;;;;;;;2.57;1.50;;;;;;;;;;5071900;28;20164;-59
2021/09/29 10:45:57;;;;;;;1.90;1.50;;;;;;;;;;5053163;28;20173;-59
2021/09/29 11:07:51;;;;;;;2.37;1.30;;;;;;;;;;5075060;28;20756;-59
2021/09/29 11:10:53;;;;;;;3.67;1.70;;;;;;;;;;5075989;28;20176;-59
2021/09/29 11:29:54;;;;;;;2.43;1.60;;;;;;;;;;5090331;28;20194;-60
2021/09/29 11:32:47;;;;;;;2.27;1.90;;;;;;;;;;5086639;28;20205;-59
2021/09/29 12:08:18;;;;;;;4.03;2.33;;;;;;;;;;5085337;28;20191;-60
2021/09/29 12:10:58;;;;;;;2.37;2.17;;;;;;;;;;5074150;28;20206;-59
2021/09/29 12:13:40;;;;;;;2.57;2.33;;;;;;;;;;5088289;28;20345;-59
2021/09/29 12:16:06;;;;;;;2.67;2.20;;;;;;;;;;5052066;28;20207;-59
2021/09/29 12:18:32;;;;;;;2.60;2.40;;;;;;;;;;5077285;28;20618;-59
2021/09/29 12:20:59;;;;;;;2.27;2.07;;;;;;;;;;5077651;28;20254;-59
2021/09/29 12:23:25;;;;;;;3.40;2.53;;;;;;;;;;5056736;28;20616;-59
2021/09/29 12:25:57;;;;;;;3.07;2.40;;;;;;;;;;5085073;28;20552;-59
2021/09/29 12:36:14;;;;;;;4.33;2.00;;;;;;;;;;5071369;28;20592;-59
2021/09/29 12:38:42;;;;;;;2.63;2.10;;;;;;;;;;5082476;28;20188;-59
2021/09/29 12:41:08;;;;;;;3.20;1.87;;;;;;;;;;5066308;28;20264;-59
2021/09/29 12:43:35;;;;;;;2.60;1.73;;;;;;;;;;5077822;28;20187;-60
2021/09/29 12:46:01;;;;;;;2.17;1.97;;;;;;;;;;5085848;28;20180;-60
2021/09/29 12:48:29;;;;;;;2.87;1.87;;;;;;;;;;5055027;28;20643;-59
2021/09/29 12:51:01;;;;;;;2.23;1.70;;;;;;;;;;5066588;28;20247;-59
2021/09/29 12:53:52;;;;;;;4.07;2.20;;;;;;;;;;5067462;28;20188;-59
2021/09/29 12:56:18;;;;;;;1.77;1.67;;;;;;;;;;5078167;28;20275;-59
2021/09/29 12:58:47;;;;;;;2.90;2.00;;;;;;;;;;5085471;28;20660;-59
2021/09/29 13:01:15;;;;;;;2.23;2.03;;;;;;;;;;5078387;28;20200;-59
2021/09/29 13:03:41;;;;;;;2.17;1.60;;;;;;;;;;5061662;28;20276;-59
2021/09/29 13:06:08;;;;;;;2.22;1.70;;;;;;;;;;5081554;28;20919;-59
2021/09/29 13:08:35;;;;;;;1.40;1.30;;;;;;;;;;5066579;28;20182;-59
2021/09/29 13:11:01;;;;;;;5.30;1.60;;;;;;;;;;5081096;28;20180;-59
2021/09/29 13:13:30;;;;;;;3.07;1.60;;;;;;;;;;5085763;28;20212;-59
2021/09/29 13:15:58;;;;;;;2.00;1.30;;;;;;;;;;5069450;28;20180;-59
2021/09/29 13:20:58;;;;;;;3.47;1.40;;;;;;;;;;5079744;28;20304;-59
2021/09/29 13:37:14;;;;;;;1.33;1.27;;;;;;;;;;5077328;28;20175;-59
2021/09/29 13:39:44;;;;;;;1.47;1.20;;;;;;;;;;5067075;28;20258;-59
2021/09/29 13:42:10;;;;;;;2.30;1.30;;;;;;;;;;5068906;28;20250;-59
2021/09/29 13:44:36;;;;;;;3.07;1.50;;;;;;;;;;5067402;28;20182;-60
2021/09/29 13:47:02;;;;;;;2.37;1.53;;;;;;;;;;5057959;28;20188;-59
2021/09/29 13:49:29;;;;;;;1.40;1.30;;;;;;;;;;5064156;28;20263;-59
2021/09/29 13:51:57;;;;;;;1.57;1.33;;;;;;;;;;5067235;28;20184;-59
2021/09/29 13:54:25;;;;;;;3.13;1.30;;;;;;;;;;5051843;28;20169;-59
2021/09/29 14:29:29;;;;;;;4.77;2.20;;;;;;;;;;5054895;28;20191;-59
2021/09/29 14:34:24;;;;;;;4.07;2.77;;;;;;;;;;5063995;28;20188;-59
2021/09/29 14:36:51;;;;;;;3.63;2.40;;;;;;;;;;5058702;28;20180;-59
2021/09/29 14:39:17;;;;;;;4.20;2.30;;;;;;;;;;5049197;28;20189;-59
2021/09/29 14:41:44;;;;;;;5.20;2.60;;;;;;;;;;5060223;28;20212;-59
2021/09/29 14:44:11;;;;;;;3.97;2.50;;;;;;;;;;5059143;28;20181;-59
2021/09/29 14:46:37;;;;;;;3.27;2.30;;;;;;;;;;5059201;28;20185;-59
2021/09/29 14:49:04;;;;;;;3.77;2.30;;;;;;;;;;5063137;28;20180;-59
2021/09/29 14:51:30;;;;;;;2.57;1.83;;;;;;;;;;5060956;28;20263;-59
2021/09/29 14:53:59;;;;;;;3.23;2.10;;;;;;;;;;5063241;28;20190;-59
2021/09/29 14:56:25;;;;;;;3.27;1.90;;;;;;;;;;5038554;28;20192;-58
2021/09/29 14:58:51;;;;;;;3.17;2.00;;;;;;;;;;5059517;28;20248;-59
2021/09/29 15:01:18;;;;;;;4.70;2.20;;;;;;;;;;5063310;28;20268;-59
2021/09/29 15:03:47;;;;;;;4.50;1.70;;;;;;;;;;5054973;28;20184;-59
2021/09/29 15:06:14;;;;;;;3.63;2.27;;;;;;;;;;5063093;28;20574;-58
2021/09/29 15:08:41;;;;;;;2.97;2.27;;;;;;;;;;5060630;28;20193;-59
2021/09/29 15:11:09;;;;;;;4.77;1.90;;;;;;;;;;5027494;28;20195;-58
2021/09/29 15:13:42;;;;;;;3.47;1.73;;;;;;;;;;5091210;28;20235;-58
2021/09/29 15:16:19;;;;;;;3.33;2.10;;;;;;;;;;5078492;28;20184;-58
2021/09/29 15:19:15;;;;;;;4.73;2.03;;;;;;;;;;5063673;28;20191;-58
2021/09/29 15:21:51;;;;;;;3.37;2.27;;;;;;;;;;5081218;28;20570;-59
2021/09/29 15:48:26;;;;;;;5.10;2.80;;;;;;;;;;5087621;28;20183;-58
2021/09/29 15:56:19;;;;;;;7.17;2.87;;;;;;;;;;5084293;28;20263;-58
2021/09/29 16:01:48;;;;;;;4.97;3.57;;;;;;;;;;5082683;28;20211;-58
2021/09/29 16:15:34;;;;;;;5.30;2.73;;;;;;;;;;5053008;28;20249;-58
2021/09/29 16:30:19;;;;;;;2.30;1.93;;;;;;;;;;5056445;28;20298;-57
2021/09/29 16:37:48;;;;;;;1.67;1.47;;;;;;;;;;5052758;28;20327;-58
2021/09/29 16:40:17;;;;;;;3.63;2.17;;;;;;;;;;5052351;28;20200;-57
2021/09/29 16:42:47;;;;;;;3.50;2.00;;;;;;;;;;5051120;28;20634;-58
2021/09/29 16:45:16;;;;;;;4.90;2.07;;;;;;;;;;5049747;28;20169;-58
2021/09/29 16:47:44;;;;;;;1.70;1.60;;;;;;;;;;5050221;28;20180;-58
2021/09/29 16:50:11;;;;;;;4.07;2.10;;;;;;;;;;5054667;28;20299;-58
2021/09/29 16:52:45;;;;;;;6.07;1.80;;;;;;;;;;5046741;28;20660;-58
2021/09/29 16:55:15;;;;;;;3.93;1.83;;;;;;;;;;5054806;28;20245;-58
2021/09/29 16:57:46;;;;;;;2.90;1.70;;;;;;;;;;5049673;28;20552;-58
2021/09/29 17:00:24;;;;;;;2.97;1.70;;;;;;;;;;5053818;28;20204;-58
2021/09/29 17:02:50;;;;;;;2.60;1.87;;;;;;;;;;5049465;28;20180;-58
2021/09/29 17:05:16;;;;;;;1.60;1.50;;;;;;;;;;5054069;28;20613;-58
2021/09/29 17:07:43;;;;;;;6.10;1.60;;;;;;;;;;5052743;28;20275;-58
2021/09/29 17:10:13;;;;;;;5.77;1.90;;;;;;;;;;5046811;28;20205;-58
2021/09/29 17:12:43;;;;;;;2.63;1.60;;;;;;;;;;5059586;28;20219;-58
2021/09/29 17:15:10;;;;;;;3.58;1.95;;;;;;;;;;5059243;28;20456;-58
2021/09/29 17:17:40;;;;;;;3.17;1.57;;;;;;;;;;5063044;28;20211;-58
2021/09/29 17:20:07;;;;;;;2.47;1.70;;;;;;;;;;5079027;28;20200;-57
2021/09/29 17:22:33;;;;;;;3.40;1.63;;;;;;;;;;5062406;28;20195;-58
2021/09/29 17:25:00;;;;;;;3.00;1.73;;;;;;;;;;5075589;28;20177;-58
2021/09/29 17:27:27;;;;;;;3.33;1.70;;;;;;;;;;5060792;28;20181;-57
2021/09/29 17:29:57;;;;;;;3.03;2.03;;;;;;;;;;5079532;28;21256;-58
2021/09/29 17:32:36;;;;;;;1.67;1.50;;;;;;;;;;5061091;28;20206;-58
2021/09/29 17:35:08;;;;;;;2.13;1.70;;;;;;;;;;5073659;28;20204;-57
2021/09/29 17:37:52;;;;;;;2.83;1.60;;;;;;;;;;5083147;28;20480;-58
2021/09/29 17:53:56;;;;;;;1.83;1.40;;;;;;;;;;5081289;28;20661;-58
2021/09/29 17:56:23;;;;;;;4.83;2.00;;;;;;;;;;5080882;28;20538;-57
2021/09/29 17:58:49;;;;;;;4.40;2.13;;;;;;;;;;5060694;28;20241;-58
2021/09/29 18:01:24;;;;;;;4.07;2.20;;;;;;;;;;5045893;28;20252;-57
2021/09/29 18:03:56;;;;;;;4.50;2.23;;;;;;;;;;5082689;28;20179;-58
2021/09/29 18:06:49;;;;;;;2.50;1.93;;;;;;;;;;5065343;28;20211;-58
2021/09/29 18:09:12;;;;;;;3.73;1.73;;;;;;;;;;5082035;28;20219;-58
2021/09/29 18:11:38;;;;;;;3.53;1.97;;;;;;;;;;5063005;28;20188;-58
2021/09/29 18:14:04;;;;;;;5.20;2.43;;;;;;;;;;5079059;28;20533;-57
2021/09/29 18:16:31;;;;;;;6.40;2.33;;;;;;;;;;5082309;28;20210;-58
2021/09/29 18:18:57;;;;;;;3.60;1.63;;;;;;;;;;5085382;28;20183;-58
2021/09/29 18:21:23;;;;;;;9.60;2.10;;;;;;;;;;5068286;28;20203;-59
2021/09/29 18:23:49;;;;;;;1.67;1.53;;;;;;;;;;5064626;28;20512;-58
2021/09/29 18:26:17;;;;;;;3.00;1.60;;;;;;;;;;5062285;28;21133;-58
2021/09/29 18:28:46;;;;;;;5.27;1.83;;;;;;;;;;5062819;28;20188;-58
2021/09/29 18:31:12;;;;;;;4.13;1.63;;;;;;;;;;5080057;28;20230;-58
2021/09/29 18:33:39;;;;;;;4.77;1.50;;;;;;;;;;5058879;28;20657;-58
2021/09/29 18:36:11;;;;;;;3.60;1.47;;;;;;;;;;5060433;28;20188;-58
2021/09/29 18:38:40;;;;;;;4.00;2.60;;;;;;;;;;5081735;28;20176;-58
2021/09/29 18:41:07;;;;;;;2.60;1.83;;;;;;;;;;5079624;28;20204;-58
2021/09/29 18:43:36;;;;;;;3.40;1.60;;;;;;;;;;5062588;28;20184;-58
2021/09/29 18:46:02;;;;;;;3.17;2.43;;;;;;;;;;5063956;28;20214;-58
2021/09/29 18:48:29;;;;;;;2.83;1.53;;;;;;;;;;5085340;28;21577;-58
2021/09/29 18:50:57;;;;;;;2.57;1.53;;;;;;;;;;5065401;28;20183;-58
2021/09/29 18:53:28;;;;;;;1.77;1.67;;;;;;;;;;5067308;28;20266;-57
2021/09/29 18:56:29;;;;;;;4.50;1.60;;;;;;;;;;5065430;28;20186;-58
2021/09/29 19:09:40;;;;;;;1.57;1.33;;;;;;;;;;5049702;28;20202;-58
2021/09/29 19:12:09;;;;;;;1.80;1.30;;;;;;;;;;5078795;28;20211;-58